Time;durP1;ratioP1;P1;durP2;ratioP2;P2;SDS_P1;SDS_P2;PMS_P1;PMS_P2;Temp;Humidity;BMP_temperature;BMP_pressure;BME280_temperature;BME280_humidity;BME280_pressure;Samples;Min_cycle;Max_cycle;Signal;HPM_P1;HPM_P2
2020/12/13 00:01:04;;;;;;;32.27;24.30;;;;;;;;;;4576955;28;20449;-77
2020/12/13 00:03:20;;;;;;;31.73;25.70;;;7.40;84.40;;;;;;4577723;28;20495;-76
2020/12/13 00:05:36;;;;;;;30.87;24.50;;;6.30;82.50;;;;;;4579100;28;20881;-76
2020/12/13 00:07:52;;;;;;;30.57;23.90;;;;;;;;;;4577453;28;20894;-75
2020/12/13 00:10:10;;;;;;;30.37;23.57;;;;;;;;;;4577480;28;20500;-77
2020/12/13 00:12:28;;;;;;;32.97;23.90;;;;;;;;;;4577183;28;20452;-77
2020/12/13 00:14:43;;;;;;;33.40;25.30;;;;;;;;;;4559656;28;20438;-76
2020/12/13 00:17:00;;;;;;;32.40;24.80;;;9.10;83.80;;;;;;4577676;28;20580;-78
2020/12/13 00:19:15;;;;;;;32.27;24.10;;;8.50;83.00;;;;;;4575780;28;20441;-76
2020/12/13 00:21:30;;;;;;;31.60;23.07;;;8.40;83.00;;;;;;4559098;28;21004;-75
2020/12/13 00:23:46;;;;;;;31.20;23.37;;;;;;;;;;4574952;28;20449;-76
2020/12/13 00:26:06;;;;;;;31.30;24.37;;;6.60;82.90;;;;;;4576599;28;20441;-77
2020/12/13 00:28:24;;;;;;;30.23;22.47;;;;;;;;;;4576260;28;20428;-76
2020/12/13 00:30:39;;;;;;;29.93;22.57;;;;;;;;;;4576465;28;20880;-75
2020/12/13 00:32:56;;;;;;;30.67;23.27;;;;;;;;;;4576167;28;20453;-75
2020/12/13 00:35:13;;;;;;;33.77;23.07;;;;;;;;;;4576750;28;20503;-75
2020/12/13 00:37:29;;;;;;;29.40;22.50;;;;;;;;;;4576974;28;21049;-75
2020/12/13 00:39:45;;;;;;;30.03;22.03;;;8.50;85.30;;;;;;4576721;28;20461;-75
2020/12/13 00:42:00;;;;;;;30.80;23.33;;;;;;;;;;4576069;28;20540;-74
2020/12/13 00:44:16;;;;;;;21.30;18.07;;;;;;;;;;4575876;28;20433;-74
2020/12/13 00:46:32;;;;;;;26.67;20.13;;;;;;;;;;4576313;28;20445;-74
2020/12/13 00:48:50;;;;;;;21.40;17.53;;;;;;;;;;4575708;28;20584;-74
2020/12/13 00:51:09;;;;;;;22.33;17.30;;;;;;;;;;4575931;28;20426;-74
2020/12/13 00:53:27;;;;;;;21.40;17.40;;;;;;;;;;4576583;28;20914;-74
2020/12/13 00:55:43;;;;;;;20.63;17.33;;;;;;;;;;4577042;28;20445;-75
2020/12/13 00:58:04;;;;;;;21.00;17.43;;;;;;;;;;4574860;28;20440;-75
2020/12/13 01:00:20;;;;;;;22.57;18.87;;;;;;;;;;4575906;28;20531;-75
2020/12/13 01:02:36;;;;;;;20.17;17.80;;;7.40;84.90;;;;;;4575852;28;20544;-75
2020/12/13 01:04:52;;;;;;;25.27;18.40;;;8.20;79.70;;;;;;4576818;28;20456;-75
2020/12/13 01:07:08;;;;;;;21.50;17.57;;;;;;;;;;4576178;28;20452;-75
2020/12/13 01:09:24;;;;;;;22.43;18.07;;;;;;;;;;4577058;28;20437;-75
2020/12/13 01:11:40;;;;;;;20.23;17.37;;;;;;;;;;4576086;28;20452;-75
2020/12/13 01:13:57;;;;;;;20.40;17.30;;;;;;;;;;4575274;28;20460;-76
2020/12/13 01:16:12;;;;;;;21.30;18.53;;;;;;;;;;4574536;28;20918;-76
2020/12/13 01:18:28;;;;;;;20.10;17.47;;;7.80;83.90;;;;;;4576092;28;20452;-76
2020/12/13 01:20:44;;;;;;;19.43;16.57;;;7.20;83.10;;;;;;4576243;28;20453;-76
2020/12/13 01:23:00;;;;;;;20.73;16.93;;;;;;;;;;4574562;28;20857;-76
2020/12/13 01:25:16;;;;;;;21.47;18.50;;;8.80;84.20;;;;;;4576630;28;20932;-76
2020/12/13 01:27:32;;;;;;;23.17;18.47;;;;;;;;;;4574681;28;20445;-76
2020/12/13 01:29:47;;;;;;;24.40;18.97;;;;;;;;;;4576251;28;20465;-76
2020/12/13 01:32:03;;;;;;;22.33;18.73;;;8.40;83.50;;;;;;4575779;28;20535;-74
2020/12/13 01:34:18;;;;;;;19.07;16.60;;;8.80;83.70;;;;;;4576271;28;20441;-74
2020/12/13 01:36:35;;;;;;;21.73;16.17;;;8.10;83.00;;;;;;4575296;28;21026;-74
2020/12/13 01:38:52;;;;;;;17.27;15.40;;;;;;;;;;4574901;28;20449;-74
2020/12/13 01:41:08;;;;;;;18.37;15.40;;;;;;;;;;4575389;28;20456;-75
2020/12/13 01:43:24;;;;;;;18.27;15.93;;;;;;;;;;4576453;28;20452;-74
2020/12/13 01:45:40;;;;;;;18.77;16.17;;;;;;;;;;4575394;28;20836;-74
2020/12/13 01:47:56;;;;;;;18.83;16.43;;;8.20;82.80;;;;;;4574742;28;20464;-75
2020/12/13 01:50:22;;;;;;;19.37;15.87;;;8.40;82.80;;;;;;4575227;28;20990;-75
2020/12/13 01:52:46;;;;;;;18.03;16.13;;;7.20;82.30;;;;;;4576246;28;20492;-75
2020/12/13 01:55:04;;;;;;;17.80;15.73;;;;;;;;;;4575169;28;20440;-75
2020/12/13 01:57:21;;;;;;;17.10;15.30;;;7.60;82.00;;;;;;4575684;28;20476;-74
2020/12/13 01:59:41;;;;;;;16.90;13.93;;;8.60;82.80;;;;;;4575415;28;21029;-75
2020/12/13 02:01:58;;;;;;;17.33;15.33;;;;;;;;;;4575665;28;20802;-75
2020/12/13 02:04:19;;;;;;;16.80;15.00;;;7.30;77.50;;;;;;4575877;28;20444;-75
2020/12/13 02:06:35;;;;;;;17.47;15.43;;;;;;;;;;4575315;28;20430;-75
2020/12/13 02:08:55;;;;;;;15.70;13.83;;;8.00;82.40;;;;;;4575732;28;20443;-75
2020/12/13 02:11:11;;;;;;;18.40;15.20;;;;;;;;;;4574906;28;20441;-75
2020/12/13 02:13:27;;;;;;;18.97;15.77;;;;;;;;;;4575635;28;20528;-75
2020/12/13 02:15:43;;;;;;;18.17;15.73;;;;;;;;;;4574821;28;20453;-75
2020/12/13 02:17:59;;;;;;;14.97;12.77;;;8.40;82.70;;;;;;4575895;28;20567;-74
2020/12/13 02:20:15;;;;;;;16.27;14.17;;;7.90;77.60;;;;;;4574885;28;20445;-75
2020/12/13 02:22:32;;;;;;;15.43;13.10;;;;;;;;;;4575916;28;20912;-75
2020/12/13 02:24:50;;;;;;;14.23;12.73;;;;;;;;;;4575069;28;20991;-75
2020/12/13 02:27:07;;;;;;;15.47;13.53;;;;;;;;;;4574360;28;20531;-75
2020/12/13 02:29:25;;;;;;;15.80;14.10;;;7.40;82.00;;;;;;4574390;28;20461;-76
2020/12/13 02:31:40;;;;;;;15.60;13.60;;;5.70;80.90;;;;;;4574364;28;20513;-76
2020/12/13 02:33:56;;;;;;;15.03;13.43;;;8.50;82.90;;;;;;4574529;28;20807;-75
2020/12/13 02:36:12;;;;;;;16.13;14.03;;;;;;;;;;4575573;28;20558;-75
2020/12/13 02:38:28;;;;;;;15.97;13.27;;;6.40;81.60;;;;;;4574860;28;20441;-74
2020/12/13 02:40:44;;;;;;;18.60;14.33;;;;;;;;;;4575057;28;20439;-75
2020/12/13 02:43:00;;;;;;;16.80;15.00;;;;;;;;;;4575219;28;20460;-74
2020/12/13 02:45:16;;;;;;;17.37;15.30;;;;;;;;;;4574924;28;20452;-75
2020/12/13 02:47:31;;;;;;;17.93;16.00;;;9.40;83.90;;;;;;4575318;28;20536;-75
2020/12/13 02:49:47;;;;;;;17.47;15.67;;;;;;;;;;4574668;28;20445;-75
2020/12/13 02:52:03;;;;;;;18.27;15.13;;;;;;;;;;4575250;28;20528;-75
2020/12/13 02:54:19;;;;;;;17.50;15.47;;;;;;;;;;4573592;28;20456;-75
2020/12/13 02:56:36;;;;;;;18.93;16.13;;;;;;;;;;4575149;28;20485;-75
2020/12/13 02:58:52;;;;;;;18.83;16.47;;;;;;;;;;4574807;28;21021;-75
2020/12/13 03:01:10;;;;;;;17.90;15.47;;;;;;;;;;4573903;28;20940;-76
2020/12/13 03:03:27;;;;;;;19.63;16.57;;;;;;;;;;4574638;28;20437;-74
2020/12/13 03:05:43;;;;;;;20.93;17.63;;;;;;;;;;4575236;28;20449;-76
2020/12/13 03:07:59;;;;;;;18.80;16.00;;;;;;;;;;4574465;28;20450;-74
2020/12/13 03:10:15;;;;;;;19.33;16.30;;;5.80;82.20;;;;;;4578783;28;20458;-74
2020/12/13 03:12:31;;;;;;;19.80;16.87;;;;;;;;;;4576312;28;20487;-76
2020/12/13 03:14:46;;;;;;;20.60;17.83;;;8.50;83.60;;;;;;4578959;28;20862;-75
2020/12/13 03:17:05;;;;;;;18.90;16.60;;;;;;;;;;4577431;28;21017;-75
2020/12/13 03:19:21;;;;;;;23.07;17.83;;;7.90;83.30;;;;;;4578732;28;20429;-75
2020/12/13 03:21:37;;;;;;;19.90;17.50;;;7.60;83.00;;;;;;4577991;28;20452;-75
2020/12/13 03:23:52;;;;;;;19.60;17.50;;;;;;;;;;4578403;28;20455;-75
2020/12/13 03:26:09;;;;;;;18.80;16.80;;;;;;;;;;4577868;28;20982;-74
2020/12/13 03:28:25;;;;;;;19.00;16.87;;;;;;;;;;4578340;28;20495;-76
2020/12/13 03:30:41;;;;;;;18.37;15.87;;;;;;;;;;4577921;28;20522;-76
2020/12/13 03:32:56;;;;;;;19.90;17.53;;;;;;;;;;4577930;28;20527;-76
2020/12/13 03:35:12;;;;;;;19.30;17.17;;;;;;;;;;4578071;28;20543;-75
2020/12/13 03:37:28;;;;;;;19.63;17.47;;;;;;;;;;4577582;28;20476;-76
2020/12/13 03:39:44;;;;;;;19.17;17.07;;;5.50;81.50;;;;;;4576694;28;20441;-75
2020/12/13 03:42:00;;;;;;;20.03;17.13;;;;;;;;;;4577557;28;20456;-76
2020/12/13 03:44:16;;;;;;;18.90;17.00;;;7.30;82.40;;;;;;4577057;28;20861;-75
2020/12/13 03:46:31;;;;;;;17.50;15.33;;;;;;;;;;4577458;28;20445;-75
2020/12/13 03:48:47;;;;;;;18.10;16.20;;;;;;;;;;4578147;28;20503;-75
2020/12/13 03:51:03;;;;;;;18.50;16.50;;;;;;;;;;4577392;28;20499;-74
2020/12/13 03:53:19;;;;;;;18.20;16.30;;;;;;;;;;4578050;28;20465;-75
2020/12/13 03:55:34;;;;;;;18.10;16.20;;;8.10;82.50;;;;;;4577429;28;20919;-75
2020/12/13 03:57:53;;;;;;;17.93;15.73;;;6.20;76.30;;;;;;4576706;28;20850;-75
2020/12/13 04:00:08;;;;;;;19.80;17.80;;;;;;;;;;4576842;28;20471;-75
2020/12/13 04:02:24;;;;;;;17.80;16.00;;;;;;;;;;4577923;28;20444;-76
2020/12/13 04:04:41;;;;;;;19.43;17.43;;;;;;;;;;4577174;28;20928;-76
2020/12/13 04:06:56;;;;;;;19.47;16.87;;;;;;;;;;4577782;28;20528;-75
2020/12/13 04:09:14;;;;;;;20.33;17.53;;;;;;;;;;4576843;28;20488;-75
2020/12/13 04:11:31;;;;;;;18.40;16.50;;;5.70;80.90;;;;;;4577635;28;21320;-75
2020/12/13 04:13:47;;;;;;;20.33;18.20;;;6.20;81.00;;;;;;4575500;28;20495;-75
2020/12/13 04:16:03;;;;;;;19.07;17.07;;;;;;;;;;4577109;28;20465;-75
2020/12/13 04:18:19;;;;;;;19.40;17.33;;;;;;;;;;4577023;28;20476;-76
2020/12/13 04:20:34;;;;;;;20.23;17.63;;;;;;;;;;4575792;28;20473;-75
2020/12/13 04:22:50;;;;;;;19.67;17.67;;;6.40;81.00;;;;;;4577262;28;20441;-74
2020/12/13 04:25:06;;;;;;;18.63;15.43;;;;;;;;;;4577147;28;20449;-73
2020/12/13 04:27:21;;;;;;;15.80;13.97;;;;;;;;;;4577223;28;20448;-75
2020/12/13 04:29:38;;;;;;;16.70;15.00;;;7.80;77.30;;;;;;4576883;28;20982;-75
2020/12/13 04:31:55;;;;;;;18.20;14.67;;;6.00;80.70;;;;;;4577301;28;20452;-74
2020/12/13 04:34:11;;;;;;;16.73;14.40;;;7.60;81.80;;;;;;4575335;28;20451;-76
2020/12/13 04:36:27;;;;;;;15.77;14.17;;;;;;;;;;4575914;28;20437;-75
2020/12/13 04:38:42;;;;;;;14.57;13.03;;;6.80;81.20;;;;;;4576608;28;20955;-73
2020/12/13 04:40:59;;;;;;;15.60;13.87;;;7.20;81.20;;;;;;4577222;28;20479;-76
2020/12/13 04:43:15;;;;;;;14.77;13.17;;;;;;;;;;4576254;28;20447;-74
2020/12/13 04:45:32;;;;;;;14.80;13.33;;;5.60;80.50;;;;;;4577195;28;20457;-75
2020/12/13 04:48:01;;;;;;;13.93;12.43;;;6.60;76.50;;;;;;4576307;28;20441;-75
2020/12/13 04:50:20;;;;;;;14.53;13.03;;;;;;;;;;4577467;28;20434;-75
2020/12/13 04:52:38;;;;;;;16.10;13.63;;;7.80;77.50;;;;;;4576395;28;20810;-74
2020/12/13 04:54:53;;;;;;;14.53;12.97;;;;;;;;;;4577035;28;20440;-76
2020/12/13 04:57:09;;;;;;;14.20;12.60;;;;;;;;;;4576208;28;20495;-75
2020/12/13 04:59:26;;;;;;;13.17;11.77;;;;;;;;;;4576794;28;20932;-77
2020/12/13 05:01:44;;;;;;;14.20;12.70;;;8.20;82.00;;;;;;4576459;28;20784;-75
2020/12/13 05:04:00;;;;;;;14.30;12.63;;;8.70;82.30;;;;;;4576513;28;20864;-75
2020/12/13 05:06:16;;;;;;;13.07;11.63;;;;;;;;;;4576672;28;20453;-75
2020/12/13 05:08:32;;;;;;;13.00;11.70;;;;;;;;;;4576162;28;20524;-75
2020/12/13 05:10:48;;;;;;;13.53;11.93;;;;;;;;;;4576640;28;20547;-76
2020/12/13 05:13:03;;;;;;;13.47;12.07;;;;;;;;;;4576061;28;20453;-75
2020/12/13 05:15:19;;;;;;;13.43;12.03;;;5.90;80.80;;;;;;4576724;28;20480;-73
2020/12/13 05:17:36;;;;;;;13.73;11.80;;;8.20;77.20;;;;;;4575493;28;20828;-75
2020/12/13 05:19:52;;;;;;;12.70;11.30;;;;;;;;;;4576817;28;20895;-76
2020/12/13 05:22:07;;;;;;;14.07;12.40;;;;;;;;;;4574444;28;20536;-76
2020/12/13 05:24:23;;;;;;;13.53;11.80;;;5.70;80.40;;;;;;4576676;28;20451;-74
2020/12/13 05:26:39;;;;;;;13.93;11.43;;;;;;;;;;4575643;28;20433;-76
2020/12/13 05:28:55;;;;;;;12.30;11.00;;;;;;;;;;4576466;28;20503;-75
2020/12/13 05:31:12;;;;;;;11.73;10.43;;;;;;;;;;4574862;28;21018;-74
2020/12/13 05:33:32;;;;;;;12.50;11.20;;;;;;;;;;4576433;28;20444;-75
2020/12/13 05:35:48;;;;;;;14.03;11.73;;;;;;;;;;4574013;28;20460;-75
2020/12/13 05:38:11;;;;;;;12.07;10.83;;;6.70;76.20;;;;;;4576084;28;20587;-76
2020/12/13 05:40:27;;;;;;;11.90;10.70;;;;;;;;;;4575481;28;20433;-75
2020/12/13 05:42:45;;;;;;;12.93;11.50;;;;;;;;;;4576161;28;20440;-75
2020/12/13 05:45:20;;;;;;;12.73;11.10;;;;;;;;;;4575727;28;20787;-75
2020/12/13 05:50:50;;;;;;;12.27;10.93;;;7.50;81.60;;;;;;4566274;28;20457;-76
2020/12/13 05:53:06;;;;;;;12.57;11.27;;;;;;;;;;4576091;28;20417;-77
2020/12/13 05:55:21;;;;;;;12.50;11.20;;;7.60;81.70;;;;;;4578121;28;20440;-76
2020/12/13 05:57:38;;;;;;;12.50;10.90;;;;;;;;;;4574290;28;20480;-76
2020/12/13 05:59:53;;;;;;;11.60;10.40;;;6.60;80.70;;;;;;4576242;28;20476;-75
2020/12/13 06:02:11;;;;;;;11.13;10.03;;;7.20;81.20;;;;;;4575282;28;20524;-74
2020/12/13 06:04:29;;;;;;;11.30;10.20;;;7.30;81.00;;;;;;4575649;28;20520;-75
2020/12/13 06:06:46;;;;;;;11.23;10.03;;;8.20;81.90;;;;;;4576062;28;20461;-74
2020/12/13 06:09:05;;;;;;;11.13;9.57;;;7.40;76.50;;;;;;4573874;28;20504;-73
2020/12/13 06:11:22;;;;;;;9.97;8.17;;;;;;;;;;4575877;28;20438;-74
2020/12/13 06:13:44;;;;;;;10.63;9.40;;;5.80;75.40;;;;;;4575100;28;20451;-74
2020/12/13 06:16:01;;;;;;;11.33;9.90;;;8.20;81.70;;;;;;4575452;28;20512;-74
2020/12/13 06:18:17;;;;;;;10.50;9.40;;;;;;;;;;4557299;28;20509;-75
2020/12/13 06:20:34;;;;;;;12.47;10.20;;;;;;;;;;4575849;28;20764;-78
2020/12/13 06:22:52;;;;;;;11.17;9.97;;;;;;;;;;4573598;28;20444;-75
2020/12/13 06:25:08;;;;;;;11.00;9.80;;;;;;;;;;4574474;28;20470;-75
2020/12/13 06:27:24;;;;;;;12.90;10.83;;;;;;;;;;4574729;28;20441;-76
2020/12/13 06:29:42;;;;;;;11.63;10.43;;;7.80;77.30;;;;;;4575555;28;20507;-75
2020/12/13 06:32:01;;;;;;;12.00;9.73;;;;;;;;;;4574428;28;20448;-77
2020/12/13 06:34:17;;;;;;;11.70;10.50;;;;;;;;;;4575652;28;20425;-75
2020/12/13 06:36:35;;;;;;;12.57;10.70;;;;;;;;;;4573208;28;20445;-74
2020/12/13 06:38:53;;;;;;;13.07;10.50;;;;;;;;;;4575352;28;20526;-77
2020/12/13 06:41:12;;;;;;;14.80;11.50;;;6.10;80.80;;;;;;4574738;28;20480;-76
2020/12/13 06:43:28;;;;;;;12.40;11.10;;;;;;;;;;4573443;28;20484;-76
2020/12/13 06:45:44;;;;;;;13.80;11.77;;;;;;;;;;4575064;28;20800;-75
2020/12/13 06:48:00;;;;;;;12.20;10.90;;;;;;;;;;4573083;28;20519;-75
2020/12/13 06:50:21;;;;;;;13.80;10.73;;;8.20;77.20;;;;;;4574965;28;20871;-76
2020/12/13 06:52:37;;;;;;;12.53;11.03;;;7.80;81.30;;;;;;4574719;28;20429;-75
2020/12/13 06:54:57;;;;;;;11.87;10.63;;;5.80;80.00;;;;;;4575322;28;20912;-75
2020/12/13 06:57:17;;;;;;;12.27;10.97;;;5.60;75.70;;;;;;4574470;28;20500;-75
2020/12/13 06:59:35;;;;;;;13.50;12.10;;;8.00;77.20;;;;;;4575379;28;20433;-76
2020/12/13 07:01:51;;;;;;;12.90;11.50;;;;;;;;;;4574220;28;20484;-76
2020/12/13 07:04:28;;;;;;;14.57;12.40;;;6.60;75.70;;;;;;4575338;28;20445;-75
2020/12/13 07:06:44;;;;;;;13.27;11.83;;;;;;;;;;4574400;28;21023;-77
2020/12/13 07:09:07;;;;;;;14.33;12.83;;;7.50;76.70;;;;;;4573998;28;20453;-76
2020/12/13 07:11:27;;;;;;;14.23;12.73;;;;;;;;;;4574385;28;20480;-76
2020/12/13 07:13:44;;;;;;;13.83;11.57;;;;;;;;;;4575485;28;20982;-75
2020/12/13 07:16:04;;;;;;;15.30;12.53;;;;;;;;;;4574252;28;20476;-75
2020/12/13 07:18:20;;;;;;;14.17;12.30;;;;;;;;;;4574471;28;20473;-75
2020/12/13 07:20:36;;;;;;;14.13;12.03;;;7.50;76.50;;;;;;4574886;28;20531;-75
2020/12/13 07:22:57;;;;;;;17.77;12.97;;;7.40;76.60;;;;;;4574413;28;20444;-74
2020/12/13 07:25:14;;;;;;;13.67;11.73;;;6.10;80.00;;;;;;4574952;28;20434;-75
2020/12/13 07:27:32;;;;;;;15.00;12.07;;;6.80;80.70;;;;;;4574223;28;20487;-75
2020/12/13 07:29:48;;;;;;;14.23;12.10;;;6.40;80.40;;;;;;4575080;28;20433;-76
2020/12/13 07:32:05;;;;;;;13.70;12.30;;;7.70;81.50;;;;;;4574092;28;20453;-75
2020/12/13 07:34:24;;;;;;;15.90;12.70;;;;;;;;;;4575010;28;20444;-75
2020/12/13 07:36:41;;;;;;;13.70;12.30;;;;;;;;;;4574249;28;20445;-77
2020/12/13 07:38:57;;;;;;;14.43;12.70;;;;;;;;;;4575276;28;20893;-76
2020/12/13 07:41:16;;;;;;;14.70;12.80;;;8.30;77.30;;;;;;4573928;28;20468;-76
2020/12/13 07:43:33;;;;;;;13.27;11.87;;;7.90;80.20;;;;;;4574990;28;20440;-76
2020/12/13 07:45:48;;;;;;;13.50;12.10;;;;;;;;;;4574001;28;20990;-76
2020/12/13 07:48:04;;;;;;;14.87;13.03;;;;;;;;;;4574941;28;20449;-75
2020/12/13 07:50:23;;;;;;;14.53;12.37;;;7.10;81.40;;;;;;4572685;28;20459;-76
2020/12/13 07:52:44;;;;;;;14.93;13.00;;;;;;;;;;4574588;28;20539;-75
2020/12/13 07:55:06;;;;;;;14.40;12.80;;;6.80;81.10;;;;;;4575794;28;20465;-76
2020/12/13 07:57:24;;;;;;;15.50;13.03;;;6.90;80.90;;;;;;4577615;28;20911;-75
2020/12/13 07:59:41;;;;;;;15.50;13.53;;;6.70;80.80;;;;;;4577693;28;20444;-77
2020/12/13 08:01:57;;;;;;;18.07;13.63;;;7.60;76.80;;;;;;4577283;28;20917;-76
2020/12/13 08:04:15;;;;;;;15.70;13.30;;;;;;;;;;4577913;28;20480;-76
2020/12/13 08:06:32;;;;;;;14.40;12.83;;;;;;;;;;4575915;28;20822;-75
2020/12/13 08:08:47;;;;;;;14.67;13.10;;;6.10;80.80;;;;;;4577790;28;20540;-75
2020/12/13 08:11:13;;;;;;;16.63;14.50;;;7.90;77.50;;;;;;4576948;28;20478;-77
2020/12/13 08:13:28;;;;;;;19.10;15.93;;;6.00;80.90;;;;;;4577872;28;20488;-75
2020/12/13 08:15:45;;;;;;;18.60;14.17;;;;;;;;;;4576631;28;20456;-76
2020/12/13 08:18:04;;;;;;;16.13;14.43;;;8.00;81.90;;;;;;4576213;28;20485;-75
2020/12/13 08:20:21;;;;;;;16.20;14.50;;;;;;;;;;4575142;28;20541;-75
2020/12/13 08:22:38;;;;;;;17.87;15.43;;;5.60;75.80;;;;;;4577761;28;20552;-75
2020/12/13 08:24:55;;;;;;;16.20;14.50;;;;;;;;;;4576507;28;20452;-77
2020/12/13 08:27:11;;;;;;;18.00;14.37;;;;;;;;;;4577369;28;20866;-75
2020/12/13 08:29:27;;;;;;;16.93;15.00;;;;;;;;;;4576764;28;20783;-75
2020/12/13 08:31:44;;;;;;;20.30;16.07;;;;;;;;;;4577295;28;20460;-75
2020/12/13 08:34:00;;;;;;;17.63;14.57;;;;;;;;;;4575317;28;20528;-77
2020/12/13 08:36:18;;;;;;;16.40;14.70;;;7.60;76.50;;;;;;4577324;28;20441;-75
2020/12/13 08:38:33;;;;;;;17.23;14.37;;;7.50;81.00;;;;;;4576904;28;20489;-76
2020/12/13 08:40:51;;;;;;;15.07;13.10;;;6.90;80.20;;;;;;4576565;28;20468;-75
2020/12/13 08:43:07;;;;;;;16.33;14.60;;;;;;;;;;4577077;28;20448;-77
2020/12/13 08:45:25;;;;;;;17.40;15.43;;;;;;;;;;4576489;28;20448;-75
2020/12/13 08:48:00;;;;;;;17.90;14.60;;;7.80;81.10;;;;;;4576103;28;20437;-75
2020/12/13 08:50:19;;;;;;;15.70;14.03;;;;;;;;;;4576211;28;20501;-75
2020/12/13 08:52:35;;;;;;;17.17;14.73;;;5.50;79.60;;;;;;4575951;28;20440;-76
2020/12/13 08:54:52;;;;;;;16.93;14.97;;;;;;;;;;4574955;28;20468;-75
2020/12/13 08:57:08;;;;;;;15.53;13.50;;;;;;;;;;4577378;28;20449;-75
2020/12/13 08:59:24;;;;;;;20.30;14.10;;;;;;;;;;4575788;28;20547;-75
2020/12/13 09:01:53;;;;;;;14.77;12.87;;;7.70;76.60;;;;;;4577024;28;20465;-76
2020/12/13 09:04:20;;;;;;;15.00;13.30;;;5.70;75.30;;;;;;4574508;28;20917;-76
2020/12/13 09:06:36;;;;;;;16.20;13.53;;;6.40;80.00;;;;;;4575806;28;20464;-74
2020/12/13 09:08:54;;;;;;;16.73;14.13;;;;;;;;;;4576359;28;20472;-75
2020/12/13 09:11:10;;;;;;;17.47;14.43;;;;;;;;;;4574827;28;20970;-75
2020/12/13 09:13:26;;;;;;;17.90;14.30;;;;;;;;;;4576639;28;20445;-75
2020/12/13 09:15:42;;;;;;;16.90;15.10;;;;;;;;;;4575645;28;20449;-76
2020/12/13 09:17:59;;;;;;;17.63;15.67;;;;;;;;;;4576439;28;20483;-77
2020/12/13 09:20:23;;;;;;;19.40;17.03;;;5.90;75.80;;;;;;4575642;28;20452;-76
2020/12/13 09:23:05;;;;;;;17.37;15.50;;;;;;;;;;4576718;28;20777;-75
2020/12/13 09:25:22;;;;;;;17.33;15.53;;;;;;;;;;4575589;28;20421;-75
2020/12/13 09:27:37;;;;;;;21.93;16.83;;;;;;;;;;4576633;28;20514;-75
2020/12/13 09:29:54;;;;;;;17.40;15.43;;;;;;;;;;4575273;28;20814;-75
2020/12/13 09:32:09;;;;;;;18.37;15.97;;;;;;;;;;4576198;28;20465;-76
2020/12/13 09:34:25;;;;;;;18.27;15.73;;;;;;;;;;4575357;28;20441;-75
2020/12/13 09:36:43;;;;;;;17.87;15.80;;;;;;;;;;4576253;28;21296;-76
2020/12/13 09:39:14;;;;;;;17.17;15.23;;;;;;;;;;4575804;28;20805;-75
2020/12/13 09:41:29;;;;;;;18.73;16.80;;;;;;;;;;4575579;28;20444;-75
2020/12/13 09:43:45;;;;;;;16.77;15.03;;;;;;;;;;4575623;28;20933;-75
2020/12/13 09:46:01;;;;;;;17.63;15.63;;;;;;;;;;4575381;28;20508;-75
2020/12/13 09:48:17;;;;;;;17.10;15.30;;;;;;;;;;4576072;28;20948;-76
2020/12/13 09:50:32;;;;;;;17.27;15.33;;;8.30;81.00;;;;;;4575211;28;20932;-75
2020/12/13 09:52:49;;;;;;;16.70;15.00;;;;;;;;;;4574450;28;20507;-76
2020/12/13 09:55:05;;;;;;;15.10;13.57;;;;;;;;;;4575228;28;20931;-76
2020/12/13 09:57:20;;;;;;;22.87;14.30;;;7.70;80.40;;;;;;4575692;28;20460;-74
2020/12/13 09:59:35;;;;;;;16.30;14.17;;;7.90;80.30;;;;;;4574940;28;20484;-76
2020/12/13 10:01:51;;;;;;;15.80;13.37;;;;;;;;;;4575979;28;21099;-76
2020/12/13 10:04:07;;;;;;;14.87;13.27;;;7.90;80.00;;;;;;4573323;28;20449;-76
2020/12/13 10:06:45;;;;;;;14.13;12.60;;;8.10;80.40;;;;;;4576048;28;20441;-76
2020/12/13 10:09:07;;;;;;;13.83;12.33;;;8.50;80.40;;;;;;4573663;28;20437;-76
2020/12/13 10:11:22;;;;;;;13.63;12.23;;;;;;;;;;4575653;28;20938;-76
2020/12/13 10:13:38;;;;;;;13.97;12.47;;;8.10;80.20;;;;;;4573663;28;20452;-77
2020/12/13 10:15:53;;;;;;;13.73;12.27;;;;;;;;;;4575641;28;20488;-76
2020/12/13 10:18:09;;;;;;;14.67;13.17;;;;;;;;;;4574833;28;20519;-75
2020/12/13 10:20:25;;;;;;;14.60;12.77;;;;;;;;;;4575070;28;20823;-75
2020/12/13 10:22:40;;;;;;;14.77;12.37;;;7.30;75.50;;;;;;4575219;28;20943;-74
2020/12/13 10:24:57;;;;;;;14.80;13.30;;;;;;;;;;4574776;28;20445;-75
2020/12/13 10:27:13;;;;;;;14.77;13.10;;;;;;;;;;4575313;28;20452;-74
2020/12/13 10:29:28;;;;;;;15.43;13.47;;;9.30;80.20;;;;;;4574712;28;20455;-75
2020/12/13 10:31:46;;;;;;;14.93;13.23;;;6.80;79.00;;;;;;4575327;28;20555;-75
2020/12/13 10:34:03;;;;;;;15.90;13.97;;;7.60;75.00;;;;;;4574364;28;20463;-77
2020/12/13 10:36:19;;;;;;;15.03;13.40;;;;;;;;;;4575538;28;20529;-74
2020/12/13 10:38:35;;;;;;;16.57;13.53;;;7.30;78.70;;;;;;4574521;28;20506;-74
2020/12/13 10:40:52;;;;;;;15.77;13.63;;;;;;;;;;4575170;28;20445;-75
2020/12/13 10:43:08;;;;;;;16.93;13.90;;;;;;;;;;4574322;28;20455;-73
2020/12/13 10:45:24;;;;;;;19.50;14.60;;;;;;;;;;4575247;28;20463;-76
2020/12/13 10:47:40;;;;;;;15.27;13.37;;;7.90;78.80;;;;;;4574422;28;20526;-75
2020/12/13 10:49:56;;;;;;;16.17;14.07;;;;;;;;;;4575645;28;20524;-76
2020/12/13 10:52:11;;;;;;;15.60;13.90;;;;;;;;;;4574053;28;20901;-77
2020/12/13 10:54:29;;;;;;;15.97;13.37;;;;;;;;;;4575394;28;20459;-75
2020/12/13 10:56:45;;;;;;;19.37;15.17;;;9.00;79.40;;;;;;4574411;28;20940;-76
2020/12/13 10:59:01;;;;;;;19.80;14.50;;;8.40;79.00;;;;;;4574966;28;20497;-75
2020/12/13 11:01:17;;;;;;;17.70;14.27;;;;;;;;;;4574167;28;20975;-76
2020/12/13 11:03:33;;;;;;;16.53;14.77;;;;;;;;;;4574976;28;20444;-75
2020/12/13 11:05:49;;;;;;;15.90;13.83;;;;;;;;;;4574630;28;20441;-75
2020/12/13 11:08:07;;;;;;;16.40;14.20;;;;;;;;;;4574237;28;20453;-76
2020/12/13 11:10:23;;;;;;;18.10;15.07;;;;;;;;;;4573216;28;20467;-74
2020/12/13 11:12:39;;;;;;;19.30;16.63;;;7.40;77.70;;;;;;4574432;28;20445;-76
2020/12/13 11:14:55;;;;;;;15.97;13.93;;;;;;;;;;4574820;28;20445;-76
2020/12/13 11:17:11;;;;;;;17.17;14.40;;;;;;;;;;4574014;28;20496;-76
2020/12/13 11:19:27;;;;;;;18.67;13.93;;;;;;;;;;4574963;28;20484;-77
2020/12/13 11:21:44;;;;;;;16.87;14.87;;;8.20;75.80;;;;;;4574306;28;20939;-76
2020/12/13 11:23:59;;;;;;;18.87;15.10;;;7.60;78.00;;;;;;4575080;28;20451;-77
2020/12/13 11:26:15;;;;;;;17.37;15.30;;;;;;;;;;4573842;28;20441;-75
2020/12/13 11:28:32;;;;;;;17.80;14.90;;;;;;;;;;4574961;28;20457;-75
2020/12/13 11:30:47;;;;;;;17.63;15.37;;;;;;;;;;4577129;28;20437;-73
2020/12/13 11:33:03;;;;;;;19.03;15.17;;;;;;;;;;4578271;28;20464;-75
2020/12/13 11:35:18;;;;;;;15.57;13.47;;;8.00;78.30;;;;;;4577519;28;20451;-76
2020/12/13 11:37:34;;;;;;;17.40;14.33;;;7.60;77.90;;;;;;4578550;28;20809;-75
2020/12/13 11:39:50;;;;;;;16.53;13.97;;;9.10;78.80;;;;;;4577030;28;20477;-76
2020/12/13 11:42:06;;;;;;;22.10;14.43;;;;;;;;;;4578789;28;20452;-77
2020/12/13 11:44:23;;;;;;;18.03;14.30;;;;;;;;;;4577108;28;20448;-75
2020/12/13 11:46:38;;;;;;;17.47;15.27;;;7.60;76.60;;;;;;4578514;28;20984;-76
2020/12/13 11:48:54;;;;;;;18.90;15.07;;;;;;;;;;4576982;28;20464;-76
2020/12/13 11:51:10;;;;;;;18.70;14.60;;;;;;;;;;4578136;28;20531;-76
2020/12/13 11:53:26;;;;;;;16.80;14.20;;;;;;;;;;4577269;28;20875;-76
2020/12/13 11:55:41;;;;;;;16.13;14.23;;;;;;;;;;4577648;28;20469;-74
2020/12/13 11:57:57;;;;;;;16.80;14.33;;;8.30;77.60;;;;;;4575951;28;20452;-75
2020/12/13 12:00:13;;;;;;;16.37;14.40;;;;;;;;;;4576037;28;20795;-74
2020/12/13 12:02:29;;;;;;;19.20;14.33;;;;;;;;;;4577393;28;21352;-74
2020/12/13 12:04:45;;;;;;;17.93;13.50;;;9.00;74.30;;;;;;4577403;28;20951;-74
2020/12/13 12:07:01;;;;;;;18.00;14.80;;;8.60;76.90;;;;;;4577782;28;20495;-74
2020/12/13 12:09:17;;;;;;;19.07;14.57;;;9.00;77.10;;;;;;4576136;28;20445;-73
2020/12/13 12:11:33;;;;;;;16.83;14.60;;;;;;;;;;4574146;28;20512;-73
2020/12/13 12:13:49;;;;;;;16.93;14.50;;;8.40;71.60;;;;;;4575158;28;20441;-73
2020/12/13 12:16:06;;;;;;;16.87;15.13;;;;;;;;;;4575962;28;20484;-75
2020/12/13 12:18:22;;;;;;;16.47;14.43;;;;;;;;;;4576735;28;20515;-75
2020/12/13 12:20:37;;;;;;;18.67;15.83;;;;;;;;;;4593269;28;20914;-75
2020/12/13 12:22:53;;;;;;;17.60;15.70;;;;;;;;;;4591984;28;20451;-75
2020/12/13 12:25:09;;;;;;;17.60;14.77;;;8.80;75.90;;;;;;4592777;28;20971;-76
2020/12/13 12:27:27;;;;;;;16.90;15.10;;;;;;;;;;4593486;28;21125;-75
2020/12/13 12:29:42;;;;;;;16.80;15.10;;;;;;;;;;4593942;28;20452;-76
2020/12/13 12:31:59;;;;;;;17.10;15.37;;;;;;;;;;4591614;28;20463;-74
2020/12/13 12:34:15;;;;;;;17.63;15.73;;;9.10;76.10;;;;;;4595352;28;20444;-76
2020/12/13 12:36:31;;;;;;;19.30;14.90;;;;;;;;;;4594425;28;20448;-76
2020/12/13 12:38:47;;;;;;;17.17;15.37;;;;;;;;;;4594785;28;20538;-76
2020/12/13 12:41:02;;;;;;;17.70;14.77;;;8.00;75.30;;;;;;4591490;28;20483;-75